sensor_id;sensor_type;location;lat;lon;timestamp;pressure;altitude;pressure_sealevel;temperature;humidity
51081;BME280;37130;55.670;37.596;2022-12-10T00:01:30;99395.66;;;-2.15;82.27
51081;BME280;37130;55.670;37.596;2022-12-10T00:03:59;99367.09;;;-2.34;82.36
51081;BME280;37130;55.670;37.596;2022-12-10T00:06:31;99405.19;;;-2.11;82.69
51081;BME280;37130;55.670;37.596;2022-12-10T00:09:02;99228.81;;;-3.16;82.57
51081;BME280;37130;55.670;37.596;2022-12-10T00:11:30;99412.94;;;-2.02;82.44
51081;BME280;37130;55.670;37.596;2022-12-10T00:13:58;99308.34;;;-2.64;82.51
51081;BME280;37130;55.670;37.596;2022-12-10T00:16:27;99403.44;;;-2.06;82.15
51081;BME280;37130;55.670;37.596;2022-12-10T00:18:56;99311.78;;;-2.65;82.50
51081;BME280;37130;55.670;37.596;2022-12-10T00:21:26;99426.78;;;-1.97;82.30
51081;BME280;37130;55.670;37.596;2022-12-10T00:23:54;99413.81;;;-1.95;82.60
51081;BME280;37130;55.670;37.596;2022-12-10T00:26:25;99408.63;;;-1.99;82.95
51081;BME280;37130;55.670;37.596;2022-12-10T00:28:54;99404.28;;;-2.00;82.43
51081;BME280;37130;55.670;37.596;2022-12-10T00:31:26;99404.31;;;-1.98;82.76
51081;BME280;37130;55.670;37.596;2022-12-10T00:33:59;99393.06;;;-1.99;82.94
51081;BME280;37130;55.670;37.596;2022-12-10T00:36:36;99393.91;;;-2.00;82.46
51081;BME280;37130;55.670;37.596;2022-12-10T00:39:04;99394.78;;;-1.98;82.32
51081;BME280;37130;55.670;37.596;2022-12-10T00:41:32;99396.53;;;-1.98;82.04
51081;BME280;37130;55.670;37.596;2022-12-10T00:44:00;99390.47;;;-1.99;81.76
51081;BME280;37130;55.670;37.596;2022-12-10T00:46:28;99386.13;;;-2.00;81.97
51081;BME280;37130;55.670;37.596;2022-12-10T00:48:58;99396.50;;;-2.07;81.88
51081;BME280;37130;55.670;37.596;2022-12-10T00:51:26;99375.75;;;-2.13;82.40
51081;BME280;37130;55.670;37.596;2022-12-10T00:53:56;99379.22;;;-2.16;82.73
51081;BME280;37130;55.670;37.596;2022-12-10T00:56:29;99383.53;;;-2.15;82.31
51081;BME280;37130;55.670;37.596;2022-12-10T00:59:16;99371.44;;;-2.22;83.10
51081;BME280;37130;55.670;37.596;2022-12-10T01:02:02;99338.59;;;-2.34;83.03
51081;BME280;37130;55.670;37.596;2022-12-10T01:04:30;99270.28;;;-2.83;82.72
51081;BME280;37130;55.670;37.596;2022-12-10T01:06:57;99342.91;;;-2.39;83.30
51081;BME280;37130;55.670;37.596;2022-12-10T01:09:29;99321.31;;;-2.46;83.16
51081;BME280;37130;55.670;37.596;2022-12-10T01:12:01;99347.25;;;-2.27;83.08
51081;BME280;37130;55.670;37.596;2022-12-10T01:14:30;99343.78;;;-2.18;83.46
51081;BME280;37130;55.670;37.596;2022-12-10T01:17:01;99183.06;;;-3.06;82.80
51081;BME280;37130;55.670;37.596;2022-12-10T01:19:33;99344.66;;;-2.12;83.10
51081;BME280;37130;55.670;37.596;2022-12-10T01:22:03;99343.78;;;-2.09;83.23
51081;BME280;37130;55.670;37.596;2022-12-10T01:24:31;99342.03;;;-2.00;83.14
51081;BME280;37130;55.670;37.596;2022-12-10T01:26:59;99346.38;;;-2.02;82.61
51081;BME280;37130;55.670;37.596;2022-12-10T01:29:26;99348.94;;;-2.03;82.35
51081;BME280;37130;55.670;37.596;2022-12-10T01:31:56;99347.22;;;-2.00;82.69
51081;BME280;37130;55.670;37.596;2022-12-10T01:34:25;99333.38;;;-1.92;82.78
51081;BME280;37130;55.670;37.596;2022-12-10T01:36:55;99326.44;;;-1.95;82.57
51081;BME280;37130;55.670;37.596;2022-12-10T01:39:23;99343.75;;;-1.94;82.99
51081;BME280;37130;55.670;37.596;2022-12-10T01:41:56;99345.47;;;-1.90;82.93
51081;BME280;37130;55.670;37.596;2022-12-10T01:46:54;99347.19;;;-1.83;81.95
51081;BME280;37130;55.670;37.596;2022-12-10T01:49:32;99350.66;;;-1.79;82.21
51081;BME280;37130;55.670;37.596;2022-12-10T01:52:04;99348.03;;;-1.79;82.67
51081;BME280;37130;55.670;37.596;2022-12-10T01:54:40;99348.91;;;-1.86;82.05
51081;BME280;37130;55.670;37.596;2022-12-10T01:57:13;99352.38;;;-1.89;82.56
51081;BME280;37130;55.670;37.596;2022-12-10T01:59:45;99350.66;;;-1.87;82.33
51081;BME280;37130;55.670;37.596;2022-12-10T02:02:54;99350.69;;;-1.88;82.78
51081;BME280;37130;55.670;37.596;2022-12-10T02:05:26;99348.03;;;-1.84;82.26
51081;BME280;37130;55.670;37.596;2022-12-10T02:08:17;99348.09;;;-1.88;81.49
51081;BME280;37130;55.670;37.596;2022-12-10T02:16:34;99362.81;;;-1.96;82.40
51081;BME280;37130;55.670;37.596;2022-12-10T02:19:15;99359.34;;;-1.99;81.79
51081;BME280;37130;55.670;37.596;2022-12-10T02:21:47;99347.22;;;-2.00;82.32
51081;BME280;37130;55.670;37.596;2022-12-10T02:24:21;99345.50;;;-2.11;82.29
51081;BME280;37130;55.670;37.596;2022-12-10T02:27:27;99345.50;;;-2.21;82.94
51081;BME280;37130;55.670;37.596;2022-12-10T02:29:57;99336.88;;;-2.19;82.49
51081;BME280;37130;55.670;37.596;2022-12-10T02:32:38;99156.31;;;-3.22;83.15
51081;BME280;37130;55.670;37.596;2022-12-10T02:35:14;99275.50;;;-2.45;82.58
51081;BME280;37130;55.670;37.596;2022-12-10T02:37:56;99342.88;;;-1.94;81.89
51081;BME280;37130;55.670;37.596;2022-12-10T02:40:31;99330.75;;;-1.94;82.38
51081;BME280;37130;55.670;37.596;2022-12-10T02:43:02;99329.03;;;-1.84;81.81
51081;BME280;37130;55.670;37.596;2022-12-10T02:45:30;99297.09;;;-2.14;82.18
51081;BME280;37130;55.670;37.596;2022-12-10T02:48:01;99325.59;;;-2.00;82.82
51081;BME280;37130;55.670;37.596;2022-12-10T02:50:38;99334.22;;;-1.87;82.65
51081;BME280;37130;55.670;37.596;2022-12-10T02:53:06;99335.94;;;-1.82;82.71
51081;BME280;37130;55.670;37.596;2022-12-10T02:56:09;99305.69;;;-1.90;82.46
51081;BME280;37130;55.670;37.596;2022-12-10T03:01:38;99323.81;;;-1.73;81.63
51081;BME280;37130;55.670;37.596;2022-12-10T03:04:31;99312.59;;;-1.82;82.35
51081;BME280;37130;55.670;37.596;2022-12-10T03:07:08;99309.97;;;-1.82;82.08
51081;BME280;37130;55.670;37.596;2022-12-10T03:09:47;99326.44;;;-1.80;82.45
51081;BME280;37130;55.670;37.596;2022-12-10T03:12:33;99318.63;;;-1.81;82.32
51081;BME280;37130;55.670;37.596;2022-12-10T03:15:08;99320.38;;;-1.72;82.13
51081;BME280;37130;55.670;37.596;2022-12-10T03:17:38;99332.47;;;-1.67;82.76
51081;BME280;37130;55.670;37.596;2022-12-10T03:20:11;99325.50;;;-1.63;81.83
51081;BME280;37130;55.670;37.596;2022-12-10T03:22:43;99326.38;;;-1.66;82.22
51081;BME280;37130;55.670;37.596;2022-12-10T03:25:14;99327.25;;;-1.65;82.58
51081;BME280;37130;55.670;37.596;2022-12-10T03:27:45;99216.69;;;-2.29;82.08
51081;BME280;37130;55.670;37.596;2022-12-10T03:30:16;99323.78;;;-1.61;82.33
51081;BME280;37130;55.670;37.596;2022-12-10T03:32:44;99322.91;;;-1.59;81.90
51081;BME280;37130;55.670;37.596;2022-12-10T03:35:14;99323.78;;;-1.64;81.45
51081;BME280;37130;55.670;37.596;2022-12-10T03:37:41;99335.03;;;-1.64;81.98
51081;BME280;37130;55.670;37.596;2022-12-10T03:40:10;99269.41;;;-2.12;82.35
51081;BME280;37130;55.670;37.596;2022-12-10T03:42:39;99327.22;;;-1.58;81.93
51081;BME280;37130;55.670;37.596;2022-12-10T03:45:07;99315.16;;;-1.72;81.95
51081;BME280;37130;55.670;37.596;2022-12-10T03:47:35;99322.94;;;-1.71;82.65
51081;BME280;37130;55.670;37.596;2022-12-10T03:50:03;99328.13;;;-1.71;81.88
51081;BME280;37130;55.670;37.596;2022-12-10T03:52:30;99315.19;;;-1.83;81.91
51081;BME280;37130;55.670;37.596;2022-12-10T03:54:58;99333.34;;;-1.75;81.83
51081;BME280;37130;55.670;37.596;2022-12-10T03:57:27;99234.88;;;-2.32;82.29
51081;BME280;37130;55.670;37.596;2022-12-10T03:59:54;99298.75;;;-1.91;82.76
51081;BME280;37130;55.670;37.596;2022-12-10T04:02:22;99334.22;;;-1.78;82.67
51081;BME280;37130;55.670;37.596;2022-12-10T04:04:49;99339.41;;;-1.80;82.82
51081;BME280;37130;55.670;37.596;2022-12-10T04:07:17;99329.91;;;-1.81;82.55
51081;BME280;37130;55.670;37.596;2022-12-10T04:09:44;99326.44;;;-1.86;82.08
51081;BME280;37130;55.670;37.596;2022-12-10T04:12:12;99324.69;;;-1.91;82.92
51081;BME280;37130;55.670;37.596;2022-12-10T04:14:40;99144.22;;;-2.92;82.63
51081;BME280;37130;55.670;37.596;2022-12-10T04:17:26;99319.53;;;-1.93;82.91
51081;BME280;37130;55.670;37.596;2022-12-10T04:19:53;99318.66;;;-1.92;82.79
51081;BME280;37130;55.670;37.596;2022-12-10T04:22:21;99316.06;;;-1.95;82.76
51081;BME280;37130;55.670;37.596;2022-12-10T04:25:09;99203.78;;;-2.55;82.48
51081;BME280;37130;55.670;37.596;2022-12-10T04:27:57;99318.63;;;-1.81;82.83
51081;BME280;37130;55.670;37.596;2022-12-10T04:30:24;99331.63;;;-1.75;82.77
51081;BME280;37130;55.670;37.596;2022-12-10T04:32:52;99320.34;;;-1.74;82.62
51081;BME280;37130;55.670;37.596;2022-12-10T04:35:19;99328.97;;;-1.57;82.46
51081;BME280;37130;55.670;37.596;2022-12-10T04:37:47;99319.44;;;-1.61;82.33
51081;BME280;37130;55.670;37.596;2022-12-10T04:40:14;99322.03;;;-1.56;82.51
51081;BME280;37130;55.670;37.596;2022-12-10T04:42:42;99329.78;;;-1.50;81.89
51081;BME280;37130;55.670;37.596;2022-12-10T04:45:10;99323.72;;;-1.52;81.80
51081;BME280;37130;55.670;37.596;2022-12-10T04:47:37;99322.00;;;-1.50;82.52
51081;BME280;37130;55.670;37.596;2022-12-10T04:50:05;99322.88;;;-1.51;82.01
51081;BME280;37130;55.670;37.596;2022-12-10T04:52:33;99313.31;;;-1.44;81.95
51081;BME280;37130;55.670;37.596;2022-12-10T04:55:01;99322.00;;;-1.44;81.92
51081;BME280;37130;55.670;37.596;2022-12-10T04:57:29;99318.53;;;-1.47;82.11
51081;BME280;37130;55.670;37.596;2022-12-10T04:59:56;99312.50;;;-1.46;82.55
51081;BME280;37130;55.670;37.596;2022-12-10T05:02:24;99313.34;;;-1.47;82.38
51081;BME280;37130;55.670;37.596;2022-12-10T05:04:51;99308.13;;;-1.44;82.55
51081;BME280;37130;55.670;37.596;2022-12-10T05:07:19;99256.34;;;-1.75;82.14
51081;BME280;37130;55.670;37.596;2022-12-10T05:09:46;99322.00;;;-1.45;82.01
51081;BME280;37130;55.670;37.596;2022-12-10T05:12:14;99287.41;;;-1.53;82.00
51081;BME280;37130;55.670;37.596;2022-12-10T05:14:42;99306.44;;;-1.51;81.94
51081;BME280;37130;55.670;37.596;2022-12-10T05:17:09;99310.81;;;-1.60;82.11
51081;BME280;37130;55.670;37.596;2022-12-10T05:19:37;99322.94;;;-1.69;82.37
51081;BME280;37130;55.670;37.596;2022-12-10T05:22:04;99321.22;;;-1.73;82.97
51081;BME280;37130;55.670;37.596;2022-12-10T05:24:50;99169.22;;;-2.68;82.54
51081;BME280;37130;55.670;37.596;2022-12-10T05:27:18;99326.44;;;-1.83;82.39
51081;BME280;37130;55.670;37.596;2022-12-10T05:29:45;99243.53;;;-2.41;83.14
51081;BME280;37130;55.670;37.596;2022-12-10T05:32:13;99249.56;;;-2.34;83.24
51081;BME280;37130;55.670;37.596;2022-12-10T05:34:41;99318.69;;;-1.93;82.95
51081;BME280;37130;55.670;37.596;2022-12-10T05:37:09;99219.34;;;-2.51;83.06
51081;BME280;37130;55.670;37.596;2022-12-10T05:39:36;99341.16;;;-1.91;83.14
51081;BME280;37130;55.670;37.596;2022-12-10T05:42:04;99335.94;;;-1.74;82.81
51081;BME280;37130;55.670;37.596;2022-12-10T05:44:32;99331.59;;;-1.67;82.79
51081;BME280;37130;55.670;37.596;2022-12-10T05:46:59;99335.03;;;-1.64;82.48
51081;BME280;37130;55.670;37.596;2022-12-10T05:49:27;99329.84;;;-1.73;82.65
51081;BME280;37130;55.670;37.596;2022-12-10T05:51:54;99329.03;;;-1.83;83.10
51081;BME280;37130;55.670;37.596;2022-12-10T05:54:23;99331.59;;;-1.72;83.15
51081;BME280;37130;55.670;37.596;2022-12-10T05:56:51;99317.78;;;-1.75;82.83
51081;BME280;37130;55.670;37.596;2022-12-10T05:59:18;99255.56;;;-2.15;83.25
51081;BME280;37130;55.670;37.596;2022-12-10T06:01:46;99304.78;;;-1.72;82.97
51081;BME280;37130;55.670;37.596;2022-12-10T06:04:13;99320.31;;;-1.63;83.24
51081;BME280;37130;55.670;37.596;2022-12-10T06:06:41;99321.19;;;-1.69;82.89
51081;BME280;37130;55.670;37.596;2022-12-10T06:09:12;99324.66;;;-1.68;83.37
51081;BME280;37130;55.670;37.596;2022-12-10T06:11:40;99327.25;;;-1.59;83.67
51081;BME280;37130;55.670;37.596;2022-12-10T06:14:09;99296.97;;;-1.62;83.30
51081;BME280;37130;55.670;37.596;2022-12-10T06:16:38;99320.25;;;-1.49;83.20
51081;BME280;37130;55.670;37.596;2022-12-10T06:19:06;99321.13;;;-1.47;83.24
51081;BME280;37130;55.670;37.596;2022-12-10T06:21:34;99233.94;;;-2.08;83.50
51081;BME280;37130;55.670;37.596;2022-12-10T06:24:02;99304.69;;;-1.48;83.79
51081;BME280;37130;55.670;37.596;2022-12-10T06:26:30;99300.34;;;-1.44;83.79
51081;BME280;37130;55.670;37.596;2022-12-10T06:28:58;99238.22;;;-1.86;83.66
51081;BME280;37130;55.670;37.596;2022-12-10T06:31:27;99172.59;;;-2.23;83.36
51081;BME280;37130;55.670;37.596;2022-12-10T06:33:55;99300.31;;;-1.35;83.75
51081;BME280;37130;55.670;37.596;2022-12-10T06:36:22;99252.81;;;-1.57;83.50
51081;BME280;37130;55.670;37.596;2022-12-10T06:38:50;99302.03;;;-1.28;83.40
51081;BME280;37130;55.670;37.596;2022-12-10T06:41:18;99294.28;;;-1.39;83.30
51081;BME280;37130;55.670;37.596;2022-12-10T06:43:48;99279.66;;;-1.60;83.75
51081;BME280;37130;55.670;37.596;2022-12-10T06:46:18;99292.53;;;-1.44;83.91
51081;BME280;37130;55.670;37.596;2022-12-10T06:48:47;99291.72;;;-1.46;83.85
51081;BME280;37130;55.670;37.596;2022-12-10T06:51:14;99294.25;;;-1.42;83.78
51081;BME280;37130;55.670;37.596;2022-12-10T06:53:43;99301.19;;;-1.36;83.88
51081;BME280;37130;55.670;37.596;2022-12-10T06:56:14;99302.91;;;-1.35;83.16
51081;BME280;37130;55.670;37.596;2022-12-10T06:58:42;99301.16;;;-1.30;83.47
51081;BME280;37130;55.670;37.596;2022-12-10T07:01:16;99208.81;;;-1.88;83.56
51081;BME280;37130;55.670;37.596;2022-12-10T07:03:54;99287.31;;;-1.32;83.49
51081;BME280;37130;55.670;37.596;2022-12-10T07:06:23;99297.66;;;-1.24;84.07
51081;BME280;37130;55.670;37.596;2022-12-10T07:08:52;99291.53;;;-1.16;83.77
51081;BME280;37130;55.670;37.596;2022-12-10T07:11:21;99285.50;;;-1.21;83.26
51081;BME280;37130;55.670;37.596;2022-12-10T07:13:50;99290.63;;;-1.05;83.38
51081;BME280;37130;55.670;37.596;2022-12-10T07:18:47;99301.97;;;-1.22;83.15
51081;BME280;37130;55.670;37.596;2022-12-10T07:21:30;99290.78;;;-1.35;83.64
51081;BME280;37130;55.670;37.596;2022-12-10T07:24:04;99200.16;;;-1.94;83.55
51081;BME280;37130;55.670;37.596;2022-12-10T07:26:35;99302.03;;;-1.34;83.83
51081;BME280;37130;55.670;37.596;2022-12-10T07:29:04;99300.28;;;-1.32;84.27
51081;BME280;37130;55.670;37.596;2022-12-10T07:31:33;99236.41;;;-1.73;84.26
51081;BME280;37130;55.670;37.596;2022-12-10T07:34:01;99303.75;;;-1.25;84.22
51081;BME280;37130;55.670;37.596;2022-12-10T07:36:29;99293.31;;;-1.21;83.94
51081;BME280;37130;55.670;37.596;2022-12-10T07:38:57;99271.72;;;-1.37;84.23
51081;BME280;37130;55.670;37.596;2022-12-10T07:41:25;99297.59;;;-1.14;84.21
51081;BME280;37130;55.670;37.596;2022-12-10T07:43:53;99177.59;;;-1.79;83.82
51081;BME280;37130;55.670;37.596;2022-12-10T07:46:27;99298.41;;;-1.05;84.21
51081;BME280;37130;55.670;37.596;2022-12-10T07:48:55;99115.50;;;-2.18;83.81
51081;BME280;37130;55.670;37.596;2022-12-10T07:51:23;99206.84;;;-1.44;83.69
51081;BME280;37130;55.670;37.596;2022-12-10T07:53:52;99280.19;;;-0.96;83.90
51081;BME280;37130;55.670;37.596;2022-12-10T07:56:21;99262.00;;;-1.02;83.59
51081;BME280;37130;55.670;37.596;2022-12-10T07:58:49;99282.69;;;-0.84;83.78
51081;BME280;37130;55.670;37.596;2022-12-10T08:01:20;99282.69;;;-0.82;84.15
51081;BME280;37130;55.670;37.596;2022-12-10T08:03:50;99277.47;;;-0.79;84.09
51081;BME280;37130;55.670;37.596;2022-12-10T08:06:20;99283.50;;;-0.73;84.00
51081;BME280;37130;55.670;37.596;2022-12-10T08:08:49;99285.22;;;-0.76;84.33
51081;BME280;37130;55.670;37.596;2022-12-10T08:11:19;99276.63;;;-0.78;84.37
51081;BME280;37130;55.670;37.596;2022-12-10T08:13:47;99286.00;;;-0.59;84.13
51081;BME280;37130;55.670;37.596;2022-12-10T08:16:24;99289.41;;;-0.55;83.97
51081;BME280;37130;55.670;37.596;2022-12-10T08:18:58;99281.56;;;-0.48;83.96
51081;BME280;37130;55.670;37.596;2022-12-10T08:21:28;99284.06;;;-0.37;83.41
51081;BME280;37130;55.670;37.596;2022-12-10T08:23:56;99273.69;;;-0.40;83.45
51081;BME280;37130;55.670;37.596;2022-12-10T08:26:27;99284.03;;;-0.32;83.52
51081;BME280;37130;55.670;37.596;2022-12-10T08:28:55;99283.19;;;-0.31;83.80
51081;BME280;37130;55.670;37.596;2022-12-10T08:31:25;99281.50;;;-0.40;83.86
51081;BME280;37130;55.670;37.596;2022-12-10T08:33:53;99267.78;;;-0.59;84.16
51081;BME280;37130;55.670;37.596;2022-12-10T08:36:21;99276.47;;;-0.61;84.74
51081;BME280;37130;55.670;37.596;2022-12-10T08:38:49;99273.81;;;-0.52;84.45
51081;BME280;37130;55.670;37.596;2022-12-10T08:41:19;99270.38;;;-0.57;84.49
51081;BME280;37130;55.670;37.596;2022-12-10T08:43:48;99266.03;;;-0.57;84.71
51081;BME280;37130;55.670;37.596;2022-12-10T08:46:20;99270.38;;;-0.60;85.07
51081;BME280;37130;55.670;37.596;2022-12-10T08:48:47;99166.84;;;-1.14;84.48
51081;BME280;37130;55.670;37.596;2022-12-10T08:51:17;99268.53;;;-0.46;84.79
51081;BME280;37130;55.670;37.596;2022-12-10T08:53:45;99272.84;;;-0.42;84.48
51081;BME280;37130;55.670;37.596;2022-12-10T08:56:13;99258.19;;;-0.51;84.65
51081;BME280;37130;55.670;37.596;2022-12-10T08:58:40;99253.06;;;-0.61;84.89
51081;BME280;37130;55.670;37.596;2022-12-10T09:01:10;99258.28;;;-0.61;85.13
51081;BME280;37130;55.670;37.596;2022-12-10T09:03:38;99261.72;;;-0.59;85.25
51081;BME280;37130;55.670;37.596;2022-12-10T09:06:11;99250.53;;;-0.68;85.14
51081;BME280;37130;55.670;37.596;2022-12-10T09:08:40;99263.50;;;-0.66;85.27
51081;BME280;37130;55.670;37.596;2022-12-10T09:11:12;99262.69;;;-0.74;85.32
51081;BME280;37130;55.670;37.596;2022-12-10T09:13:40;99277.41;;;-0.72;85.71
51081;BME280;37130;55.670;37.596;2022-12-10T09:16:09;99278.25;;;-0.67;86.28
51081;BME280;37130;55.670;37.596;2022-12-10T09:18:37;99288.63;;;-0.63;86.58
51081;BME280;37130;55.670;37.596;2022-12-10T09:21:06;99260.91;;;-0.66;87.46
51081;BME280;37130;55.670;37.596;2022-12-10T09:23:35;99176.44;;;-1.28;88.37
51081;BME280;37130;55.670;37.596;2022-12-10T09:26:06;99270.50;;;-0.73;88.84
51081;BME280;37130;55.670;37.596;2022-12-10T09:28:35;99281.69;;;-0.64;89.37
51081;BME280;37130;55.670;37.596;2022-12-10T09:31:04;99262.59;;;-0.59;89.75
51081;BME280;37130;55.670;37.596;2022-12-10T09:33:40;99267.72;;;-0.51;89.98
51081;BME280;37130;55.670;37.596;2022-12-10T09:36:10;99259.81;;;-0.42;89.94
51081;BME280;37130;55.670;37.596;2022-12-10T09:38:41;99255.47;;;-0.38;90.26
51081;BME280;37130;55.670;37.596;2022-12-10T09:41:36;99253.66;;;-0.32;90.19
51081;BME280;37130;55.670;37.596;2022-12-10T09:44:09;99252.00;;;-0.36;90.70
51081;BME280;37130;55.670;37.596;2022-12-10T09:46:51;99254.59;;;-0.37;91.46
51081;BME280;37130;55.670;37.596;2022-12-10T09:52:12;99252.84;;;-0.37;91.27
51081;BME280;37130;55.670;37.596;2022-12-10T09:54:52;99257.25;;;-0.43;91.28
51081;BME280;37130;55.670;37.596;2022-12-10T09:57:33;99260.75;;;-0.45;91.46
51081;BME280;37130;55.670;37.596;2022-12-10T10:00:24;99256.38;;;-0.41;92.10
51081;BME280;37130;55.670;37.596;2022-12-10T10:02:56;99247.75;;;-0.48;91.91
51081;BME280;37130;55.670;37.596;2022-12-10T10:05:30;99254.72;;;-0.50;92.12
51081;BME280;37130;55.670;37.596;2022-12-10T10:08:01;99256.44;;;-0.50;92.24
51081;BME280;37130;55.670;37.596;2022-12-10T10:10:32;99242.56;;;-0.49;92.37
51081;BME280;37130;55.670;37.596;2022-12-10T10:13:11;99247.88;;;-0.60;92.75
51081;BME280;37130;55.670;37.596;2022-12-10T10:15:43;99245.25;;;-0.63;93.32
51081;BME280;37130;55.670;37.596;2022-12-10T10:18:25;99243.59;;;-0.67;92.74
51081;BME280;37130;55.670;37.596;2022-12-10T10:20:57;99163.34;;;-1.13;93.53
51081;BME280;37130;55.670;37.596;2022-12-10T10:23:25;99194.38;;;-0.90;93.80
51081;BME280;37130;55.670;37.596;2022-12-10T10:25:53;99227.06;;;-0.63;93.91
51081;BME280;37130;55.670;37.596;2022-12-10T10:28:22;99228.78;;;-0.60;93.81
51081;BME280;37130;55.670;37.596;2022-12-10T10:30:52;99145.22;;;-1.18;94.15
51081;BME280;37130;55.670;37.596;2022-12-10T10:33:21;99211.50;;;-0.64;94.41
51081;BME280;37130;55.670;37.596;2022-12-10T10:35:56;99224.44;;;-0.58;94.76
51081;BME280;37130;55.670;37.596;2022-12-10T10:38:29;99221.00;;;-0.62;94.96
51081;BME280;37130;55.670;37.596;2022-12-10T10:40:59;99219.34;;;-0.71;94.99
51081;BME280;37130;55.670;37.596;2022-12-10T10:43:31;99215.97;;;-0.82;95.11
51081;BME280;37130;55.670;37.596;2022-12-10T10:46:17;99214.19;;;-0.77;96.04
51081;BME280;37130;55.670;37.596;2022-12-10T10:48:48;99213.22;;;-0.67;96.54
51081;BME280;37130;55.670;37.596;2022-12-10T10:51:22;99202.81;;;-0.63;96.09
51081;BME280;37130;55.670;37.596;2022-12-10T10:53:54;99206.25;;;-0.60;96.06
51081;BME280;37130;55.670;37.596;2022-12-10T10:56:31;99195.91;;;-0.69;95.97
51081;BME280;37130;55.670;37.596;2022-12-10T11:01:58;99189.88;;;-0.70;95.97
51081;BME280;37130;55.670;37.596;2022-12-10T11:04:30;99185.53;;;-0.69;96.33
51081;BME280;37130;55.670;37.596;2022-12-10T11:07:05;99188.97;;;-0.65;96.43
51081;BME280;37130;55.670;37.596;2022-12-10T11:09:38;99187.16;;;-0.57;96.54
51081;BME280;37130;55.670;37.596;2022-12-10T11:12:27;99187.16;;;-0.60;96.40
51081;BME280;37130;55.670;37.596;2022-12-10T11:14:56;99183.72;;;-0.61;96.52
51081;BME280;37130;55.670;37.596;2022-12-10T11:17:26;99175.16;;;-0.71;96.34
51081;BME280;37130;55.670;37.596;2022-12-10T11:20:12;99168.28;;;-0.79;96.50
51081;BME280;37130;55.670;37.596;2022-12-10T11:22:55;99175.22;;;-0.80;97.12
51081;BME280;37130;55.670;37.596;2022-12-10T11:30:44;99152.81;;;-0.95;97.07
51081;BME280;37130;55.670;37.596;2022-12-10T11:33:38;99161.56;;;-1.02;97.69
51081;BME280;37130;55.670;37.596;2022-12-10T11:39:02;99159.75;;;-0.95;98.58
51081;BME280;37130;55.670;37.596;2022-12-10T11:41:42;99122.63;;;-1.09;98.16
51081;BME280;37130;55.670;37.596;2022-12-10T11:47:14;99103.69;;;-1.22;98.44
51081;BME280;37130;55.670;37.596;2022-12-10T11:57:43;99142.28;;;-0.78;99.22
51081;BME280;37130;55.670;37.596;2022-12-10T12:00:23;99142.25;;;-0.75;98.84
51081;BME280;37130;55.670;37.596;2022-12-10T12:10:57;99125.72;;;-0.69;99.01
51081;BME280;37130;55.670;37.596;2022-12-10T12:13:51;99136.94;;;-0.62;99.32
51081;BME280;37130;55.670;37.596;2022-12-10T12:16:33;99115.31;;;-0.69;99.29
51081;BME280;37130;55.670;37.596;2022-12-10T12:19:13;99118.69;;;-0.59;99.27
51081;BME280;37130;55.670;37.596;2022-12-10T12:21:43;99017.81;;;-1.07;99.23
51081;BME280;37130;55.670;37.596;2022-12-10T12:24:35;99028.28;;;-1.15;98.69
51081;BME280;37130;55.670;37.596;2022-12-10T12:29:47;99073.91;;;-0.86;98.89
51081;BME280;37130;55.670;37.596;2022-12-10T12:32:25;99121.34;;;-0.62;98.97
51081;BME280;37130;55.670;37.596;2022-12-10T12:35:04;99132.59;;;-0.62;99.21
51081;BME280;37130;55.670;37.596;2022-12-10T12:37:40;99111.88;;;-0.70;99.19
51081;BME280;37130;55.670;37.596;2022-12-10T12:40:19;99121.38;;;-0.69;99.52
51081;BME280;37130;55.670;37.596;2022-12-10T12:45:31;99117.81;;;-0.58;99.82
51081;BME280;37130;55.670;37.596;2022-12-10T12:50:54;99109.16;;;-0.57;99.89
51081;BME280;37130;55.670;37.596;2022-12-10T12:53:23;99119.47;;;-0.50;99.96
51081;BME280;37130;55.670;37.596;2022-12-10T12:58:41;98992.75;;;-1.16;99.42
51081;BME280;37130;55.670;37.596;2022-12-10T13:03:58;99109.75;;;-0.35;99.73
51081;BME280;37130;55.670;37.596;2022-12-10T13:06:32;99108.03;;;-0.36;99.48
51081;BME280;37130;55.670;37.596;2022-12-10T13:27:29;98993.69;;;-1.20;99.28
51081;BME280;37130;55.670;37.596;2022-12-10T13:40:26;99018.56;;;-0.97;99.82
51081;BME280;37130;55.670;37.596;2022-12-10T13:46:49;99095.00;;;-0.33;99.93
51081;BME280;37130;55.670;37.596;2022-12-10T13:49:23;99080.16;;;-0.24;100.00
51081;BME280;37130;55.670;37.596;2022-12-10T13:54:59;99084.31;;;-0.12;99.84
51081;BME280;37130;55.670;37.596;2022-12-10T14:00:45;99075.63;;;-0.11;99.74
51081;BME280;37130;55.670;37.596;2022-12-10T14:06:19;98969.09;;;-0.90;99.37
51081;BME280;37130;55.670;37.596;2022-12-10T14:12:27;99071.69;;;-0.42;99.85
51081;BME280;37130;55.670;37.596;2022-12-10T14:14:38;99073.38;;;-0.40;100.00
51081;BME280;37130;55.670;37.596;2022-12-10T14:17:12;99061.34;;;-0.47;100.00
51081;BME280;37130;55.670;37.596;2022-12-10T14:19:45;99066.50;;;-0.44;100.00
51081;BME280;37130;55.670;37.596;2022-12-10T14:22:19;99038.03;;;-0.58;100.00
51081;BME280;37130;55.670;37.596;2022-12-10T14:24:49;99056.16;;;-0.49;100.00
51081;BME280;37130;55.670;37.596;2022-12-10T14:27:26;99053.59;;;-0.52;100.00
51081;BME280;37130;55.670;37.596;2022-12-10T14:30:26;99043.25;;;-0.58;100.00
51081;BME280;37130;55.670;37.596;2022-12-10T14:32:57;99041.53;;;-0.57;100.00
51081;BME280;37130;55.670;37.596;2022-12-10T14:35:27;99046.69;;;-0.54;100.00
51081;BME280;37130;55.670;37.596;2022-12-10T14:37:57;99037.94;;;-0.50;100.00
51081;BME280;37130;55.670;37.596;2022-12-10T14:40:29;99031.84;;;-0.48;100.00
51081;BME280;37130;55.670;37.596;2022-12-10T14:43:17;99036.16;;;-0.43;100.00
51081;BME280;37130;55.670;37.596;2022-12-10T14:45:48;99028.19;;;-0.31;100.00
51081;BME280;37130;55.670;37.596;2022-12-10T14:48:18;99026.50;;;-0.34;100.00
51081;BME280;37130;55.670;37.596;2022-12-10T14:50:46;99028.22;;;-0.34;100.00
51081;BME280;37130;55.670;37.596;2022-12-10T14:53:16;99016.97;;;-0.35;100.00
51081;BME280;37130;55.670;37.596;2022-12-10T14:56:03;98897.47;;;-1.12;100.00
51081;BME280;37130;55.670;37.596;2022-12-10T14:58:57;99004.00;;;-0.39;100.00
51081;BME280;37130;55.670;37.596;2022-12-10T15:01:31;99003.19;;;-0.43;100.00